Time;durP1;ratioP1;P1;durP2;ratioP2;P2;SDS_P1;SDS_P2;PMS_P1;PMS_P2;Temp;Humidity;BMP_temperature;BMP_pressure;BME280_temperature;BME280_humidity;BME280_pressure;Samples;Min_cycle;Max_cycle;Signal;HPM_P1;HPM_P2
2023/04/13 15:29:04;;;;;;;0.98;0.63;;;;;;;15.07;61.52;99119.63;5051128;27;2143919;-82
2023/04/13 15:31:35;;;;;;;2.25;0.75;;;;;;;15.63;59.17;99118.09;5111188;28;20050;-82
2023/04/13 15:34:07;;;;;;;0.90;0.90;;;;;;;15.72;58.41;99112.44;5129990;28;20497;-82
2023/04/13 15:36:35;;;;;;;0.60;0.60;;;;;;;15.80;56.42;99128.03;5122952;28;20043;-82
2023/04/13 15:39:03;;;;;;;1.35;0.70;;;;;;;15.83;55.32;99121.81;5118820;28;20051;-83
2023/04/13 15:41:31;;;;;;;0.98;0.75;;;;;;;15.65;54.03;99109.50;5126188;28;20078;-82
2023/04/13 15:44:00;;;;;;;2.33;1.30;;;;;;;15.51;55.02;99107.13;5129131;28;20052;-84
2023/04/13 15:46:28;;;;;;;0.70;0.70;;;;;;;15.52;54.89;99111.47;5128650;28;20043;-83
2023/04/13 15:48:56;;;;;;;1.80;0.82;;;;;;;15.62;54.36;99104.66;5128276;28;20051;-83
2023/04/13 15:51:26;;;;;;;1.55;0.77;;;;;;;15.61;54.27;99103.06;5128852;28;20044;-83
2023/04/13 15:53:54;;;;;;;0.93;0.80;;;;;;;15.37;52.80;99105.56;5128203;28;20505;-83
2023/04/13 15:56:22;;;;;;;1.92;1.00;;;;;;;15.43;55.70;99109.69;5127935;28;20059;-83
2023/04/13 15:58:50;;;;;;;1.00;0.80;;;;;;;15.40;53.63;99110.38;5124862;28;20482;-83
2023/04/13 16:01:18;;;;;;;1.42;0.77;;;;;;;15.41;55.16;99128.50;5125943;28;20043;-83
2023/04/13 16:03:45;;;;;;;1.20;0.95;;;;;;;15.45;55.07;99126.66;5126120;28;20397;-83
2023/04/13 16:06:14;;;;;;;1.00;0.68;;;;;;;15.38;55.98;99134.72;5129271;28;20043;-83
2023/04/13 16:08:42;;;;;;;0.93;0.60;;;;;;;15.40;55.66;99178.50;5129159;28;20040;-83
2023/04/13 16:11:10;;;;;;;1.65;0.68;;;;;;;15.24;54.10;99205.97;5129202;28;20035;-82
2023/04/13 16:13:38;;;;;;;0.90;0.80;;;;;;;15.03;57.95;99209.63;5110015;28;20054;-82
2023/04/13 16:16:13;;;;;;;0.68;0.63;;;;;;;14.60;60.31;99220.78;5127968;28;20035;-83
2023/04/13 16:18:41;;;;;;;1.42;0.90;;;;;;;14.32;58.38;99245.34;5128568;28;20054;-83
2023/04/13 16:21:11;;;;;;;0.90;0.30;;;;;;;13.63;57.04;99251.84;5128158;28;20366;-73
2023/04/13 16:23:39;;;;;;;0.65;0.63;;;;;;;13.41;58.14;99261.97;5127407;28;20043;-74
2023/04/13 16:26:08;;;;;;;0.68;0.43;;;;;;;12.80;62.28;99282.25;5127083;28;20048;-73
2023/04/13 16:28:36;;;;;;;0.65;0.65;;;;;;;12.82;67.95;99277.25;5127076;28;20046;-73
2023/04/13 16:31:08;;;;;;;0.60;0.60;;;;;;;12.75;71.03;99288.72;5127828;28;20050;-75
2023/04/13 16:33:36;;;;;;;0.60;0.60;;;;;;;12.17;74.26;99280.69;5127413;28;20046;-74
2023/04/13 16:36:04;;;;;;;1.85;0.70;;;;;;;12.06;77.38;99288.47;5127072;28;20481;-73
2023/04/13 16:38:32;;;;;;;0.50;0.50;;;;;;;11.90;78.81;99309.19;5100270;28;20051;-73
2023/04/13 16:41:00;;;;;;;2.60;0.63;;;;;;;11.96;80.40;99308.75;5106122;28;20044;-74
2023/04/13 16:43:27;;;;;;;0.35;0.35;;;;;;;11.74;82.78;99319.81;5081042;28;20042;-74
2023/04/13 16:45:56;;;;;;;1.17;0.45;;;;;;;11.62;86.10;99320.41;5110673;28;20036;-74
2023/04/13 16:48:25;;;;;;;0.90;0.50;;;;;;;11.68;84.83;99328.19;5113156;28;20035;-74
2023/04/13 16:51:01;;;;;;;2.25;0.70;;;;;;;11.56;88.43;99333.47;5113340;28;20502;-74
2023/04/13 16:53:29;;;;;;;1.83;0.90;;;;;;;11.61;86.64;99344.28;5108338;28;20087;-74
2023/04/13 16:55:57;;;;;;;7.25;3.45;;;;;;;11.60;88.07;99350.06;5107577;28;20044;-74
2023/04/13 16:58:25;;;;;;;22.27;12.43;;;;;;;11.67;87.78;99351.25;5087348;28;20363;-74
2023/04/13 17:00:52;;;;;;;8.10;3.97;;;;;;;11.77;88.26;99366.59;5109364;28;20048;-74
2023/04/13 17:03:20;;;;;;;5.05;3.22;;;;;;;11.53;90.45;99378.75;5082508;28;20044;-74
2023/04/13 17:05:49;;;;;;;2.63;2.03;;;;;;;11.41;93.71;99386.75;5110487;28;20040;-74
2023/04/13 17:08:17;;;;;;;3.33;2.70;;;;;;;11.16;97.35;99398.03;5095855;28;20568;-74
2023/04/13 17:10:45;;;;;;;2.75;2.28;;;;;;;11.03;98.56;99398.94;5113822;28;20043;-74
2023/04/13 17:13:13;;;;;;;4.75;3.08;;;;;;;10.96;100.00;99417.72;5095666;28;20406;-74
2023/04/13 17:15:41;;;;;;;36.50;19.60;;;;;;;10.94;100.00;99420.78;5104127;28;20044;-73
2023/04/13 17:18:10;;;;;;;10.30;6.68;;;;;;;10.59;100.00;99424.06;5109988;28;20051;-74
2023/04/13 17:20:38;;;;;;;5.45;4.25;;;;;;;10.87;100.00;99425.88;5114042;28;20050;-74
2023/04/13 17:23:06;;;;;;;7.38;4.45;;;;;;;10.75;100.00;99427.22;5096043;28;20039;-75
2023/04/13 17:25:39;;;;;;;13.90;7.88;;;;;;;10.85;100.00;99426.19;5113594;28;20047;-75
2023/04/13 17:28:08;;;;;;;1.88;1.70;;;;;;;10.48;94.52;99407.03;5095045;28;20372;-75
2023/04/13 17:30:36;;;;;;;1.92;1.38;;;;;;;10.14;100.00;99405.56;5112931;28;20047;-75
2023/04/13 17:33:03;;;;;;;3.13;1.60;;;;;;;9.82;100.00;99380.81;5095478;28;20055;-74
2023/04/13 17:35:31;;;;;;;2.15;1.67;;;;;;;9.68;100.00;99383.53;5095620;28;20032;-74
2023/04/13 17:37:59;;;;;;;2.53;1.42;;;;;;;9.69;100.00;99384.34;5088862;28;20051;-74
2023/04/13 17:40:27;;;;;;;2.70;1.10;;;;;;;9.70;100.00;99374.22;5112166;28;20039;-75
2023/04/13 17:42:55;;;;;;;1.48;0.90;;;;;;;9.71;100.00;99367.63;5112404;28;20051;-74
2023/04/13 17:45:24;;;;;;;2.50;2.30;;;;;;;9.63;100.00;99367.25;5111039;28;20047;-74
2023/04/13 17:47:52;;;;;;;3.15;2.85;;;;;;;9.59;100.00;99371.72;5093826;28;20398;-74
2023/04/13 17:50:20;;;;;;;1.83;1.10;;;;;;;9.39;100.00;99384.63;5094842;28;20509;-74
2023/04/13 17:52:48;;;;;;;1.55;1.45;;;;;;;9.45;100.00;99400.91;5112457;28;20078;-72
2023/04/13 17:55:16;;;;;;;2.15;1.30;;;;;;;9.45;100.00;99398.19;5113428;28;20039;-72
2023/04/13 17:57:44;;;;;;;1.52;0.93;;;;;;;9.49;100.00;99416.38;5111355;28;20036;-71
2023/04/13 18:00:12;;;;;;;3.97;2.67;;;;;;;9.40;100.00;99413.53;5100079;28;20052;-73
2023/04/13 18:02:40;;;;;;;5.72;2.75;;;;;;;9.46;100.00;99425.19;5093802;28;20059;-74
2023/04/13 18:05:14;;;;;;;3.70;1.85;;;;;;;9.36;100.00;99420.72;5112774;28;20040;-74
2023/04/13 18:07:42;;;;;;;2.15;1.42;;;;;;;9.45;100.00;99417.28;5100777;28;20040;-74
2023/04/13 18:10:10;;;;;;;2.80;1.58;;;;;;;9.61;100.00;99407.72;5085298;28;20497;-74
2023/04/13 18:12:39;;;;;;;3.42;1.58;;;;;;;9.72;100.00;99391.13;5112056;28;20055;-74
2023/04/13 18:15:08;;;;;;;2.78;1.50;;;;;;;9.46;100.00;99370.56;5112521;28;20044;-74
2023/04/13 18:17:37;;;;;;;0.95;0.95;;;;;;;9.58;100.00;99359.13;5107335;28;20489;-74
2023/04/13 18:20:05;;;;;;;0.95;0.93;;;;;;;9.49;100.00;99355.50;5092408;28;20051;-74
2023/04/13 18:22:33;;;;;;;2.75;1.45;;;;;;;9.53;100.00;99387.38;5091404;28;20051;-74
2023/04/13 18:25:01;;;;;;;5.40;2.03;;;;;;;9.49;100.00;99391.00;5092410;28;20043;-74
2023/04/13 18:27:30;;;;;;;1.10;0.88;;;;;;;9.49;99.02;99408.19;5094949;28;20431;-74
2023/04/13 18:29:58;;;;;;;1.58;0.82;;;;;;;9.41;96.28;99409.72;5094208;28;20044;-74
2023/04/13 18:32:26;;;;;;;1.02;0.93;;;;;;;9.28;99.91;99405.03;5112386;28;20047;-75
2023/04/13 18:34:54;;;;;;;1.10;0.73;;;;;;;9.06;98.06;99422.06;5109912;28;20040;-74
2023/04/13 18:37:21;;;;;;;0.90;0.70;;;;;;;9.17;98.67;99411.75;5093195;28;20513;-75
2023/04/13 18:39:51;;;;;;;1.33;0.80;;;;;;;9.07;95.54;99416.31;5091734;28;20545;-73
2023/04/13 18:42:19;;;;;;;1.55;0.93;;;;;;;9.17;97.89;99418.03;5092041;28;20055;-74
2023/04/13 18:44:46;;;;;;;1.50;0.88;;;;;;;8.96;96.92;99412.13;5072572;28;20396;-73
2023/04/13 18:47:14;;;;;;;1.02;0.60;;;;;;;9.00;95.16;99424.88;5108291;28;20105;-73
2023/04/13 18:49:44;;;;;;;1.42;1.30;;;;;;;8.86;94.68;99432.19;5092497;28;20047;-73
2023/04/13 18:52:12;;;;;;;37.10;16.58;;;;;;;8.86;92.75;99433.00;5108218;28;20067;-72
2023/04/13 18:54:43;;;;;;;31.05;12.90;;;;;;;8.91;91.80;99423.13;5087704;28;20052;-72
2023/04/13 18:57:11;;;;;;;14.50;6.10;;;;;;;8.92;94.74;99438.38;5101612;28;20040;-73
2023/04/13 18:59:39;;;;;;;48.17;21.90;;;;;;;8.99;93.03;99436.06;5110437;28;20508;-72
2023/04/13 19:02:07;;;;;;;15.57;8.30;;;;;;;8.99;92.56;99425.97;5110359;28;20054;-72
2023/04/13 19:04:39;;;;;;;14.88;7.90;;;;;;;9.12;91.97;99427.16;5110832;28;20054;-73
2023/04/13 19:07:07;;;;;;;2.83;2.17;;;;;;;8.94;92.12;99415.13;5103519;28;20407;-74
2023/04/13 19:09:47;;;;;;;1.55;1.40;;;;;;;9.04;90.57;99416.88;5109603;28;20059;-71
2023/04/13 19:12:16;;;;;;;1.67;1.17;;;;;;;8.95;90.96;99413.22;5110722;28;20051;-72
2023/04/13 19:14:45;;;;;;;1.92;1.70;;;;;;;8.95;90.58;99415.97;5110929;28;20493;-72
2023/04/13 19:17:15;;;;;;;1.25;1.13;;;;;;;9.11;93.09;99428.25;5098367;28;20036;-71
2023/04/13 19:19:43;;;;;;;1.33;1.15;;;;;;;9.03;90.80;99426.19;5103066;28;20048;-71
2023/04/13 19:22:10;;;;;;;0.60;0.55;;;;;;;9.13;91.86;99442.41;5091733;28;20035;-72
2023/04/13 19:24:38;;;;;;;0.80;0.70;;;;;;;8.90;94.03;99452.31;5110685;28;20063;-73
2023/04/13 19:27:06;;;;;;;0.50;0.50;;;;;;;9.06;94.13;99457.53;5087013;28;20043;-71
2023/04/13 19:29:35;;;;;;;0.93;0.50;;;;;;;8.95;90.85;99463.13;5061688;28;20062;-71
2023/04/13 19:32:03;;;;;;;0.45;0.45;;;;;;;9.36;90.33;99467.16;5063798;28;20122;-71
2023/04/13 19:34:31;;;;;;;0.35;0.32;;;;;;;9.50;88.08;99463.63;5066124;28;20048;-72
2023/04/13 19:36:59;;;;;;;0.93;0.77;;;;;;;9.72;89.71;99471.16;5065578;28;20044;-72
2023/04/13 19:39:27;;;;;;;2.47;1.13;;;;;;;9.70;91.47;99475.28;5063148;28;20045;-72
2023/04/13 19:41:55;;;;;;;1.98;0.93;;;;;;;9.66;92.06;99472.34;5066026;28;20052;-72
2023/04/13 19:44:23;;;;;;;0.75;0.73;;;;;;;9.52;94.91;99466.88;5068759;28;20051;-72
2023/04/13 19:46:51;;;;;;;1.92;0.88;;;;;;;9.53;94.64;99471.22;5069806;28;20047;-72
2023/04/13 19:49:19;;;;;;;3.20;1.25;;;;;;;9.57;96.89;99472.25;5061812;28;20045;-72
2023/04/13 19:51:47;;;;;;;5.35;2.90;;;;;;;9.54;92.34;99470.13;5058854;28;20395;-73
2023/04/13 19:54:15;;;;;;;4.72;2.70;;;;;;;9.43;94.88;99476.88;5065397;28;20407;-72
2023/04/13 19:56:43;;;;;;;6.32;1.20;;;;;;;9.48;94.97;99463.94;5065184;28;20145;-73
2023/04/13 19:59:11;;;;;;;1.00;0.90;;;;;;;9.34;95.36;99463.88;5067123;28;20036;-73
2023/04/13 20:01:39;;;;;;;1.25;0.80;;;;;;;9.37;97.02;99455.13;5068377;28;20368;-73
2023/04/13 20:04:07;;;;;;;2.95;1.35;;;;;;;9.29;99.77;99461.25;5070123;28;20036;-73
2023/04/13 20:06:36;;;;;;;1.65;1.20;;;;;;;9.43;97.98;99450.34;5059000;28;20033;-73
2023/04/13 20:09:11;;;;;;;1.33;0.90;;;;;;;9.40;95.57;99461.91;5068329;28;20045;-73
2023/04/13 20:11:42;;;;;;;3.67;1.10;;;;;;;9.49;97.26;99456.56;5070556;28;20487;-72
2023/04/13 20:14:10;;;;;;;2.97;1.38;;;;;;;9.51;97.89;99462.53;5065828;28;20040;-74
2023/04/13 20:16:39;;;;;;;1.45;1.35;;;;;;;9.54;97.22;99460.00;5067607;28;20064;-73
2023/04/13 20:19:08;;;;;;;1.52;1.23;;;;;;;9.49;97.73;99451.88;5074202;28;20036;-74
2023/04/13 20:21:37;;;;;;;1.33;1.13;;;;;;;9.46;97.15;99459.88;5070943;28;20041;-74
2023/04/13 20:24:05;;;;;;;2.03;1.35;;;;;;;9.38;99.64;99458.63;5064204;28;20045;-74
2023/04/13 20:26:33;;;;;;;2.00;1.10;;;;;;;9.47;98.02;99456.03;5071468;28;20399;-74
2023/04/13 20:29:03;;;;;;;2.17;1.50;;;;;;;9.47;97.27;99453.28;5103817;28;20509;-73
2023/04/13 20:31:32;;;;;;;1.38;1.27;;;;;;;9.50;96.32;99466.38;5114755;28;20520;-75
2023/04/13 20:34:01;;;;;;;1.90;1.10;;;;;;;9.61;96.14;99467.81;5092343;28;20043;-75
2023/04/13 20:36:30;;;;;;;2.58;1.52;;;;;;;9.70;95.50;99472.56;5106800;28;20039;-72
2023/04/13 20:38:58;;;;;;;2.17;1.52;;;;;;;9.63;97.61;99475.72;5096463;28;20039;-72
2023/04/13 20:41:32;;;;;;;2.00;1.52;;;;;;;9.80;96.23;99480.59;5113874;28;20058;-72
2023/04/13 20:44:04;;;;;;;1.55;1.20;;;;;;;9.67;95.08;99477.53;5114245;28;20052;-74
2023/04/13 20:46:35;;;;;;;2.75;1.83;;;;;;;9.49;95.25;99472.94;5114095;28;20502;-74
2023/04/13 20:49:03;;;;;;;1.95;1.50;;;;;;;9.65;97.26;99478.94;5107698;28;20059;-75
2023/04/13 20:51:32;;;;;;;1.30;1.10;;;;;;;9.48;97.35;99468.59;5106592;28;20104;-75
2023/04/13 20:54:01;;;;;;;2.90;1.60;;;;;;;9.66;94.61;99481.38;5106157;28;20047;-72
2023/04/13 20:56:29;;;;;;;1.73;1.40;;;;;;;9.65;95.11;99471.56;5103728;28;20046;-72
2023/04/13 20:58:59;;;;;;;1.42;1.33;;;;;;;9.61;95.49;99472.44;5100682;28;20051;-72
2023/04/13 21:01:29;;;;;;;1.95;1.45;;;;;;;9.64;94.92;99477.31;5098348;28;20043;-72
2023/04/13 21:03:57;;;;;;;4.32;1.65;;;;;;;9.33;97.41;99467.72;5098697;28;20047;-72
2023/04/13 21:06:27;;;;;;;2.40;1.92;;;;;;;9.36;99.78;99466.31;5100943;28;20047;-72
2023/04/13 21:08:57;;;;;;;1.77;1.67;;;;;;;9.26;98.30;99461.84;5104045;28;20040;-73
2023/04/13 21:11:26;;;;;;;2.60;1.88;;;;;;;9.37;100.00;99468.75;5095739;28;20039;-73
2023/04/13 21:13:54;;;;;;;2.90;2.13;;;;;;;9.41;99.92;99458.88;5108900;28;20040;-72
2023/04/13 21:16:24;;;;;;;6.68;1.90;;;;;;;9.51;100.00;99471.53;5113706;28;20039;-74
2023/04/13 21:18:53;;;;;;;3.95;2.22;;;;;;;9.47;100.00;99462.31;5109912;28;20051;-74
2023/04/13 21:21:22;;;;;;;2.75;2.30;;;;;;;9.52;100.00;99456.75;5094550;28;20055;-74
2023/04/13 21:23:51;;;;;;;3.60;2.88;;;;;;;9.58;100.00;99462.13;5100890;28;20481;-74
2023/04/13 21:26:19;;;;;;;3.25;2.85;;;;;;;9.69;100.00;99474.50;5102246;28;20491;-74
2023/04/13 21:28:47;;;;;;;3.72;3.20;;;;;;;9.68;100.00;99473.69;5110499;28;20051;-74
2023/04/13 21:31:15;;;;;;;4.35;2.90;;;;;;;9.59;100.00;99480.13;5078445;28;20406;-74
2023/04/13 21:33:44;;;;;;;3.90;3.35;;;;;;;9.75;100.00;99488.88;5096290;28;20450;-74
2023/04/13 21:36:12;;;;;;;4.38;2.85;;;;;;;9.75;100.00;99483.41;5096087;28;20048;-74
2023/04/13 21:38:43;;;;;;;4.22;3.13;;;;;;;9.73;100.00;99488.38;5105342;28;20047;-74
2023/04/13 21:41:17;;;;;;;3.97;3.15;;;;;;;9.77;100.00;99482.00;5096545;28;20066;-74
2023/04/13 21:43:46;;;;;;;4.40;2.92;;;;;;;9.79;100.00;99484.44;5111826;28;20052;-74
2023/04/13 21:46:14;;;;;;;3.30;2.88;;;;;;;9.64;100.00;99477.31;5102787;28;20063;-74
2023/04/13 21:48:42;;;;;;;3.95;3.38;;;;;;;9.58;100.00;99484.00;5109185;28;20059;-74
2023/04/13 21:51:10;;;;;;;3.40;3.10;;;;;;;9.61;100.00;99488.84;5111952;28;20046;-74
2023/04/13 21:53:38;;;;;;;4.18;3.22;;;;;;;9.61;100.00;99486.94;5111895;28;20044;-74
2023/04/13 21:56:06;;;;;;;4.43;3.40;;;;;;;9.65;100.00;99487.13;5111117;28;20040;-74
2023/04/13 21:58:41;;;;;;;3.45;3.10;;;;;;;9.63;100.00;99492.09;5111460;28;20129;-74
2023/04/13 22:01:11;;;;;;;4.57;3.30;;;;;;;9.74;100.00;99489.97;5104830;28;20066;-74
2023/04/13 22:03:41;;;;;;;4.38;3.20;;;;;;;9.78;100.00;99488.28;5092591;28;20044;-74
2023/04/13 22:06:10;;;;;;;5.80;3.58;;;;;;;9.59;100.00;99491.88;5076342;28;20047;-74
2023/04/13 22:08:39;;;;;;;4.47;3.53;;;;;;;9.54;100.00;99494.72;5104076;28;20036;-74
2023/04/13 22:11:07;;;;;;;4.70;3.63;;;;;;;9.64;100.00;99493.72;5092793;28;20036;-74
2023/04/13 22:13:35;;;;;;;4.68;3.70;;;;;;;9.77;100.00;99501.13;5083539;28;21489;-74
2023/04/13 22:16:03;;;;;;;4.05;3.63;;;;;;;9.62;100.00;99491.28;5092753;28;20051;-74
2023/04/13 22:18:31;;;;;;;7.63;4.03;;;;;;;9.55;100.00;99494.38;5092864;28;20418;-74
2023/04/13 22:20:59;;;;;;;3.97;3.63;;;;;;;9.66;100.00;99492.31;5092750;28;20048;-74
2023/04/13 22:23:27;;;;;;;5.68;4.10;;;;;;;9.67;100.00;99496.66;5074717;28;20052;-74
2023/04/13 22:26:00;;;;;;;5.28;3.92;;;;;;;9.56;100.00;99492.47;5092536;28;20051;-74
2023/04/13 22:28:29;;;;;;;7.85;4.65;;;;;;;9.66;100.00;99497.78;5072827;28;20138;-74
2023/04/13 22:31:05;;;;;;;6.55;4.75;;;;;;;9.52;100.00;99496.91;5096002;28;20059;-74
2023/04/13 22:33:35;;;;;;;7.30;4.40;;;;;;;9.48;100.00;99493.97;5112076;28;20047;-74
2023/04/13 22:36:04;;;;;;;5.28;4.45;;;;;;;9.61;100.00;99488.84;5076845;28;20414;-74
2023/04/13 22:38:32;;;;;;;5.78;4.90;;;;;;;9.52;100.00;99497.72;5108086;28;20051;-74
2023/04/13 22:41:05;;;;;;;6.57;4.55;;;;;;;9.37;100.00;99487.88;5076683;28;20481;-74
2023/04/13 22:43:33;;;;;;;5.70;5.20;;;;;;;9.37;100.00;99490.59;5092753;28;20036;-74
2023/04/13 22:46:01;;;;;;;5.28;4.35;;;;;;;9.41;100.00;99493.56;5089223;28;20410;-74
2023/04/13 22:48:29;;;;;;;5.55;4.82;;;;;;;9.44;100.00;99500.34;5111853;28;20051;-75
2023/04/13 22:50:59;;;;;;;5.85;4.45;;;;;;;9.41;100.00;99515.41;5108006;28;20525;-75
2023/04/13 22:53:27;;;;;;;5.25;4.70;;;;;;;9.43;100.00;99504.97;5107553;28;20046;-75
2023/04/13 22:55:55;;;;;;;6.22;5.25;;;;;;;9.31;100.00;99510.91;5093257;28;20062;-74
2023/04/13 22:58:23;;;;;;;8.25;5.43;;;;;;;9.39;100.00;99510.22;5109939;28;20039;-75
2023/04/13 23:00:51;;;;;;;7.05;6.20;;;;;;;9.50;100.00;99497.22;5080055;28;20047;-74
2023/04/13 23:03:20;;;;;;;7.35;5.60;;;;;;;9.60;100.00;99500.88;5091976;28;20387;-74
2023/04/13 23:05:48;;;;;;;7.55;5.68;;;;;;;9.54;100.00;99495.50;5079820;28;20040;-74
2023/04/13 23:08:16;;;;;;;8.27;5.95;;;;;;;9.65;100.00;99512.53;5104613;28;20044;-75
2023/04/13 23:10:43;;;;;;;7.70;5.82;;;;;;;9.58;100.00;99501.16;5081977;28;20048;-74
2023/04/13 23:13:11;;;;;;;6.35;5.18;;;;;;;9.54;100.00;99508.38;5091922;28;20048;-74
2023/04/13 23:15:39;;;;;;;7.78;5.97;;;;;;;9.30;100.00;99501.09;5091654;28;20047;-74
2023/04/13 23:18:07;;;;;;;6.65;5.80;;;;;;;9.49;100.00;99511.97;5107943;28;20472;-74
2023/04/13 23:20:35;;;;;;;7.25;5.75;;;;;;;9.53;100.00;99514.91;5111726;28;20421;-74
2023/04/13 23:23:03;;;;;;;7.15;5.60;;;;;;;9.46;100.00;99520.78;5111449;28;20051;-74
2023/04/13 23:25:31;;;;;;;5.70;5.07;;;;;;;9.32;100.00;99514.44;5109714;28;20054;-74
2023/04/13 23:27:59;;;;;;;6.55;5.03;;;;;;;9.18;100.00;99520.66;5091602;28;20055;-75
2023/04/13 23:30:27;;;;;;;5.38;4.65;;;;;;;9.19;100.00;99513.28;5091535;28;20501;-74
2023/04/13 23:32:55;;;;;;;5.43;4.50;;;;;;;9.17;100.00;99518.22;5074052;28;20040;-74
2023/04/13 23:35:22;;;;;;;5.38;4.85;;;;;;;9.20;100.00;99512.19;5107332;28;20048;-75
2023/04/13 23:37:51;;;;;;;8.88;4.60;;;;;;;9.27;100.00;99507.97;5085900;28;20040;-75
2023/04/13 23:40:18;;;;;;;4.65;4.05;;;;;;;9.30;100.00;99516.66;5101432;28;20044;-74
2023/04/13 23:42:46;;;;;;;3.13;2.83;;;;;;;9.24;100.00;99522.19;5111597;28;20050;-74
2023/04/13 23:45:14;;;;;;;2.90;2.67;;;;;;;9.23;100.00;99525.22;5109502;28;20054;-75
2023/04/13 23:47:42;;;;;;;3.05;2.75;;;;;;;9.24;100.00;99519.47;5105355;28;20039;-75
2023/04/13 23:50:11;;;;;;;4.38;3.30;;;;;;;9.25;100.00;99520.28;5113766;28;20043;-74
2023/04/13 23:52:38;;;;;;;3.00;2.80;;;;;;;9.31;100.00;99516.38;5113711;28;20067;-74
2023/04/13 23:55:07;;;;;;;2.60;2.40;;;;;;;9.28;100.00;99525.16;5115262;28;20390;-74
2023/04/13 23:57:35;;;;;;;2.38;2.13;;;;;;;9.32;100.00;99519.91;5113313;28;20054;-74
